sensor_id;sensor_type;location;lat;lon;timestamp;temperature;humidity
18160;DHT22;9205;52.032;4.314;2022-12-07T00:01:40;6.10;99.90
18160;DHT22;9205;52.032;4.314;2022-12-07T00:04:13;6.30;99.90
18160;DHT22;9205;52.032;4.314;2022-12-07T00:06:44;6.30;99.90
18160;DHT22;9205;52.032;4.314;2022-12-07T00:09:14;6.30;99.90
18160;DHT22;9205;52.032;4.314;2022-12-07T00:11:43;6.10;99.90
18160;DHT22;9205;52.032;4.314;2022-12-07T00:14:14;6.00;99.90
18160;DHT22;9205;52.032;4.314;2022-12-07T00:16:43;6.10;99.90
18160;DHT22;9205;52.032;4.314;2022-12-07T00:19:11;5.90;99.90
18160;DHT22;9205;52.032;4.314;2022-12-07T00:21:41;6.00;99.90
18160;DHT22;9205;52.032;4.314;2022-12-07T00:24:10;6.00;99.90
18160;DHT22;9205;52.032;4.314;2022-12-07T00:26:39;6.00;99.90
18160;DHT22;9205;52.032;4.314;2022-12-07T00:29:14;5.90;99.90
18160;DHT22;9205;52.032;4.314;2022-12-07T00:31:44;5.90;99.90
18160;DHT22;9205;52.032;4.314;2022-12-07T00:34:14;5.80;99.90
18160;DHT22;9205;52.032;4.314;2022-12-07T00:36:42;5.80;99.90
18160;DHT22;9205;52.032;4.314;2022-12-07T00:39:10;5.70;99.90
18160;DHT22;9205;52.032;4.314;2022-12-07T00:41:38;5.40;99.90
18160;DHT22;9205;52.032;4.314;2022-12-07T00:44:05;5.60;99.90
18160;DHT22;9205;52.032;4.314;2022-12-07T00:46:34;5.50;99.90
18160;DHT22;9205;52.032;4.314;2022-12-07T00:49:02;5.30;99.90
18160;DHT22;9205;52.032;4.314;2022-12-07T00:51:29;5.50;99.90
18160;DHT22;9205;52.032;4.314;2022-12-07T00:53:57;5.20;99.90
18160;DHT22;9205;52.032;4.314;2022-12-07T00:56:28;5.20;99.90
18160;DHT22;9205;52.032;4.314;2022-12-07T00:58:57;5.10;99.90
18160;DHT22;9205;52.032;4.314;2022-12-07T01:01:27;5.20;99.90
18160;DHT22;9205;52.032;4.314;2022-12-07T01:03:57;5.40;99.90
18160;DHT22;9205;52.032;4.314;2022-12-07T01:06:27;5.40;99.90
18160;DHT22;9205;52.032;4.314;2022-12-07T01:08:55;5.40;99.90
18160;DHT22;9205;52.032;4.314;2022-12-07T01:11:24;5.30;99.90
18160;DHT22;9205;52.032;4.314;2022-12-07T01:13:55;5.50;99.90
18160;DHT22;9205;52.032;4.314;2022-12-07T01:16:25;5.30;99.90
18160;DHT22;9205;52.032;4.314;2022-12-07T01:18:57;5.50;99.90
18160;DHT22;9205;52.032;4.314;2022-12-07T01:21:28;5.30;99.90
18160;DHT22;9205;52.032;4.314;2022-12-07T01:24:00;5.60;99.90
18160;DHT22;9205;52.032;4.314;2022-12-07T01:26:28;5.40;99.90
18160;DHT22;9205;52.032;4.314;2022-12-07T01:28:55;5.50;99.90
18160;DHT22;9205;52.032;4.314;2022-12-07T01:31:26;5.30;99.90
18160;DHT22;9205;52.032;4.314;2022-12-07T01:33:57;5.40;99.90
18160;DHT22;9205;52.032;4.314;2022-12-07T01:36:27;5.30;99.90
18160;DHT22;9205;52.032;4.314;2022-12-07T01:38:58;5.50;99.90
18160;DHT22;9205;52.032;4.314;2022-12-07T01:41:28;5.50;99.90
18160;DHT22;9205;52.032;4.314;2022-12-07T01:44:22;5.60;99.90
18160;DHT22;9205;52.032;4.314;2022-12-07T01:46:52;5.70;99.90
18160;DHT22;9205;52.032;4.314;2022-12-07T01:49:26;5.70;99.90
18160;DHT22;9205;52.032;4.314;2022-12-07T01:52:03;5.70;99.90
18160;DHT22;9205;52.032;4.314;2022-12-07T01:54:36;6.10;99.90
18160;DHT22;9205;52.032;4.314;2022-12-07T01:57:06;5.90;99.90
18160;DHT22;9205;52.032;4.314;2022-12-07T01:59:35;6.20;99.90
18160;DHT22;9205;52.032;4.314;2022-12-07T02:02:07;6.00;99.90
18160;DHT22;9205;52.032;4.314;2022-12-07T02:04:40;6.00;99.90
18160;DHT22;9205;52.032;4.314;2022-12-07T02:07:08;5.70;99.90
18160;DHT22;9205;52.032;4.314;2022-12-07T02:09:35;5.90;99.90
18160;DHT22;9205;52.032;4.314;2022-12-07T02:12:04;5.70;99.90
18160;DHT22;9205;52.032;4.314;2022-12-07T02:14:31;5.60;99.90
18160;DHT22;9205;52.032;4.314;2022-12-07T02:17:06;5.60;99.90
18160;DHT22;9205;52.032;4.314;2022-12-07T02:23:23;5.40;99.90
18160;DHT22;9205;52.032;4.314;2022-12-07T02:29:37;5.40;99.90
18160;DHT22;9205;52.032;4.314;2022-12-07T02:32:10;5.70;99.90
18160;DHT22;9205;52.032;4.314;2022-12-07T02:34:46;5.60;99.90
18160;DHT22;9205;52.032;4.314;2022-12-07T02:37:25;5.70;99.90
18160;DHT22;9205;52.032;4.314;2022-12-07T02:40:04;5.70;99.90
18160;DHT22;9205;52.032;4.314;2022-12-07T02:42:38;5.70;99.90
18160;DHT22;9205;52.032;4.314;2022-12-07T02:45:13;5.70;99.90
18160;DHT22;9205;52.032;4.314;2022-12-07T02:47:43;5.50;99.90
18160;DHT22;9205;52.032;4.314;2022-12-07T02:50:12;5.50;99.90
18160;DHT22;9205;52.032;4.314;2022-12-07T02:52:40;5.80;99.90
18160;DHT22;9205;52.032;4.314;2022-12-07T02:55:08;5.80;99.90
18160;DHT22;9205;52.032;4.314;2022-12-07T02:57:50;5.80;99.90
18160;DHT22;9205;52.032;4.314;2022-12-07T03:00:32;5.80;99.90
18160;DHT22;9205;52.032;4.314;2022-12-07T03:03:12;6.10;99.90
18160;DHT22;9205;52.032;4.314;2022-12-07T03:06:08;5.80;99.90
18160;DHT22;9205;52.032;4.314;2022-12-07T03:08:51;6.00;99.90
18160;DHT22;9205;52.032;4.314;2022-12-07T03:11:29;5.90;99.90
18160;DHT22;9205;52.032;4.314;2022-12-07T03:14:11;5.90;99.90
18160;DHT22;9205;52.032;4.314;2022-12-07T03:16:53;5.80;99.90
18160;DHT22;9205;52.032;4.314;2022-12-07T03:19:26;6.00;99.90
18160;DHT22;9205;52.032;4.314;2022-12-07T03:21:57;5.90;99.90
18160;DHT22;9205;52.032;4.314;2022-12-07T03:24:37;6.00;99.90
18160;DHT22;9205;52.032;4.314;2022-12-07T03:27:11;5.70;99.90
18160;DHT22;9205;52.032;4.314;2022-12-07T03:29:47;5.70;99.90
18160;DHT22;9205;52.032;4.314;2022-12-07T03:32:24;5.80;99.90
18160;DHT22;9205;52.032;4.314;2022-12-07T03:35:00;5.90;99.90
18160;DHT22;9205;52.032;4.314;2022-12-07T03:37:34;6.00;99.90
18160;DHT22;9205;52.032;4.314;2022-12-07T03:40:10;6.00;99.90
18160;DHT22;9205;52.032;4.314;2022-12-07T03:42:40;6.20;99.90
18160;DHT22;9205;52.032;4.314;2022-12-07T03:45:09;6.10;99.90
18160;DHT22;9205;52.032;4.314;2022-12-07T03:47:44;6.00;99.90
18160;DHT22;9205;52.032;4.314;2022-12-07T03:50:21;6.00;99.90
18160;DHT22;9205;52.032;4.314;2022-12-07T03:52:56;5.90;99.90
18160;DHT22;9205;52.032;4.314;2022-12-07T03:55:31;5.90;99.90
18160;DHT22;9205;52.032;4.314;2022-12-07T03:58:04;5.80;99.90
18160;DHT22;9205;52.032;4.314;2022-12-07T04:00:34;6.00;99.90
18160;DHT22;9205;52.032;4.314;2022-12-07T04:03:04;5.70;99.90
18160;DHT22;9205;52.032;4.314;2022-12-07T04:05:31;5.70;99.90
18160;DHT22;9205;52.032;4.314;2022-12-07T04:07:59;5.90;99.90
18160;DHT22;9205;52.032;4.314;2022-12-07T04:10:26;5.50;99.90
18160;DHT22;9205;52.032;4.314;2022-12-07T04:12:53;5.70;99.90
18160;DHT22;9205;52.032;4.314;2022-12-07T04:15:21;5.90;99.90
18160;DHT22;9205;52.032;4.314;2022-12-07T04:17:49;5.90;99.90
18160;DHT22;9205;52.032;4.314;2022-12-07T04:20:18;5.50;99.90
18160;DHT22;9205;52.032;4.314;2022-12-07T04:22:45;5.50;99.90
18160;DHT22;9205;52.032;4.314;2022-12-07T04:25:13;5.50;99.90
18160;DHT22;9205;52.032;4.314;2022-12-07T04:27:40;5.60;99.90
18160;DHT22;9205;52.032;4.314;2022-12-07T04:30:09;5.70;99.90
18160;DHT22;9205;52.032;4.314;2022-12-07T04:32:36;5.60;99.90
18160;DHT22;9205;52.032;4.314;2022-12-07T04:35:05;5.60;99.90
18160;DHT22;9205;52.032;4.314;2022-12-07T04:37:34;5.70;99.90
18160;DHT22;9205;52.032;4.314;2022-12-07T04:40:06;5.80;99.90
18160;DHT22;9205;52.032;4.314;2022-12-07T04:42:36;5.60;99.90
18160;DHT22;9205;52.032;4.314;2022-12-07T04:45:05;5.50;99.90
18160;DHT22;9205;52.032;4.314;2022-12-07T04:47:33;5.80;99.90
18160;DHT22;9205;52.032;4.314;2022-12-07T04:50:01;5.70;99.90
18160;DHT22;9205;52.032;4.314;2022-12-07T04:52:28;5.50;99.90
18160;DHT22;9205;52.032;4.314;2022-12-07T04:54:57;5.60;99.90
18160;DHT22;9205;52.032;4.314;2022-12-07T04:57:24;5.60;99.90
18160;DHT22;9205;52.032;4.314;2022-12-07T04:59:52;5.50;99.90
18160;DHT22;9205;52.032;4.314;2022-12-07T05:02:19;5.70;99.90
18160;DHT22;9205;52.032;4.314;2022-12-07T05:04:46;5.70;99.90
18160;DHT22;9205;52.032;4.314;2022-12-07T05:07:14;5.70;99.90
18160;DHT22;9205;52.032;4.314;2022-12-07T05:09:41;5.50;99.90
18160;DHT22;9205;52.032;4.314;2022-12-07T05:12:10;5.50;99.90
18160;DHT22;9205;52.032;4.314;2022-12-07T05:14:37;5.60;99.90
18160;DHT22;9205;52.032;4.314;2022-12-07T05:17:05;5.60;99.90
18160;DHT22;9205;52.032;4.314;2022-12-07T05:19:32;5.50;99.90
18160;DHT22;9205;52.032;4.314;2022-12-07T05:22:00;5.70;99.90
18160;DHT22;9205;52.032;4.314;2022-12-07T05:24:27;5.70;99.90
18160;DHT22;9205;52.032;4.314;2022-12-07T05:26:54;5.70;99.90
18160;DHT22;9205;52.032;4.314;2022-12-07T05:29:23;5.60;99.90
18160;DHT22;9205;52.032;4.314;2022-12-07T05:31:51;5.50;99.90
18160;DHT22;9205;52.032;4.314;2022-12-07T05:34:19;5.70;99.90
18160;DHT22;9205;52.032;4.314;2022-12-07T05:36:46;5.70;99.90
18160;DHT22;9205;52.032;4.314;2022-12-07T05:39:15;5.70;99.90
18160;DHT22;9205;52.032;4.314;2022-12-07T05:41:42;5.60;99.90
18160;DHT22;9205;52.032;4.314;2022-12-07T05:44:28;5.80;99.90
18160;DHT22;9205;52.032;4.314;2022-12-07T05:46:55;5.60;99.90
18160;DHT22;9205;52.032;4.314;2022-12-07T05:49:23;5.70;99.90
18160;DHT22;9205;52.032;4.314;2022-12-07T05:51:50;5.80;99.90
18160;DHT22;9205;52.032;4.314;2022-12-07T05:54:18;5.90;99.90
18160;DHT22;9205;52.032;4.314;2022-12-07T05:56:45;5.90;99.90
18160;DHT22;9205;52.032;4.314;2022-12-07T05:59:13;6.00;99.90
18160;DHT22;9205;52.032;4.314;2022-12-07T06:01:50;5.90;99.90
18160;DHT22;9205;52.032;4.314;2022-12-07T06:04:18;5.80;99.90
18160;DHT22;9205;52.032;4.314;2022-12-07T06:06:46;6.00;99.90
18160;DHT22;9205;52.032;4.314;2022-12-07T06:09:14;5.90;99.90
18160;DHT22;9205;52.032;4.314;2022-12-07T06:11:42;6.00;99.90
18160;DHT22;9205;52.032;4.314;2022-12-07T06:14:27;6.00;99.90
18160;DHT22;9205;52.032;4.314;2022-12-07T06:16:56;6.00;99.90
18160;DHT22;9205;52.032;4.314;2022-12-07T06:19:23;6.00;99.90
18160;DHT22;9205;52.032;4.314;2022-12-07T06:21:51;5.90;99.90
18160;DHT22;9205;52.032;4.314;2022-12-07T06:24:19;5.80;99.90
18160;DHT22;9205;52.032;4.314;2022-12-07T06:26:47;5.80;99.90
18160;DHT22;9205;52.032;4.314;2022-12-07T06:29:16;5.80;99.90
18160;DHT22;9205;52.032;4.314;2022-12-07T06:31:44;5.70;99.90
18160;DHT22;9205;52.032;4.314;2022-12-07T06:34:16;5.60;99.90
18160;DHT22;9205;52.032;4.314;2022-12-07T06:36:45;5.70;99.90
18160;DHT22;9205;52.032;4.314;2022-12-07T06:39:17;5.60;99.90
18160;DHT22;9205;52.032;4.314;2022-12-07T06:41:44;5.80;99.90
18160;DHT22;9205;52.032;4.314;2022-12-07T06:44:12;5.60;99.90
18160;DHT22;9205;52.032;4.314;2022-12-07T06:46:40;5.80;99.90
18160;DHT22;9205;52.032;4.314;2022-12-07T06:49:07;5.60;99.90
18160;DHT22;9205;52.032;4.314;2022-12-07T06:51:36;5.70;99.90
18160;DHT22;9205;52.032;4.314;2022-12-07T06:54:07;5.70;99.90
18160;DHT22;9205;52.032;4.314;2022-12-07T06:56:36;5.50;99.90
18160;DHT22;9205;52.032;4.314;2022-12-07T06:59:06;5.70;99.90
18160;DHT22;9205;52.032;4.314;2022-12-07T07:01:35;5.70;99.90
18160;DHT22;9205;52.032;4.314;2022-12-07T07:04:04;5.60;99.90
18160;DHT22;9205;52.032;4.314;2022-12-07T07:06:32;5.70;99.90
18160;DHT22;9205;52.032;4.314;2022-12-07T07:09:02;5.70;99.90
18160;DHT22;9205;52.032;4.314;2022-12-07T07:11:33;5.60;99.90
18160;DHT22;9205;52.032;4.314;2022-12-07T07:14:00;5.50;99.90
18160;DHT22;9205;52.032;4.314;2022-12-07T07:16:29;5.60;99.90
18160;DHT22;9205;52.032;4.314;2022-12-07T07:18:57;5.40;99.90
18160;DHT22;9205;52.032;4.314;2022-12-07T07:21:25;5.60;99.90
18160;DHT22;9205;52.032;4.314;2022-12-07T07:23:54;5.70;99.90
18160;DHT22;9205;52.032;4.314;2022-12-07T07:26:26;5.60;99.90
18160;DHT22;9205;52.032;4.314;2022-12-07T07:28:53;5.60;99.90
18160;DHT22;9205;52.032;4.314;2022-12-07T07:31:23;5.70;99.90
18160;DHT22;9205;52.032;4.314;2022-12-07T07:33:51;5.60;99.90
18160;DHT22;9205;52.032;4.314;2022-12-07T07:36:19;5.90;99.90
18160;DHT22;9205;52.032;4.314;2022-12-07T07:38:47;5.90;99.90
18160;DHT22;9205;52.032;4.314;2022-12-07T07:41:15;5.80;99.90
18160;DHT22;9205;52.032;4.314;2022-12-07T07:43:43;5.80;99.90
18160;DHT22;9205;52.032;4.314;2022-12-07T07:46:11;5.90;99.90
18160;DHT22;9205;52.032;4.314;2022-12-07T07:48:38;5.90;99.90
18160;DHT22;9205;52.032;4.314;2022-12-07T07:51:06;5.90;99.90
18160;DHT22;9205;52.032;4.314;2022-12-07T07:53:34;6.00;99.90
18160;DHT22;9205;52.032;4.314;2022-12-07T07:56:02;5.90;99.90
18160;DHT22;9205;52.032;4.314;2022-12-07T07:58:29;5.90;99.90
18160;DHT22;9205;52.032;4.314;2022-12-07T08:01:05;5.90;99.90
18160;DHT22;9205;52.032;4.314;2022-12-07T08:03:33;5.80;99.90
18160;DHT22;9205;52.032;4.314;2022-12-07T08:06:02;5.80;99.90
18160;DHT22;9205;52.032;4.314;2022-12-07T08:08:30;5.90;99.90
18160;DHT22;9205;52.032;4.314;2022-12-07T08:10:58;5.90;99.90
18160;DHT22;9205;52.032;4.314;2022-12-07T08:13:27;6.00;99.90
18160;DHT22;9205;52.032;4.314;2022-12-07T08:15:54;5.90;99.90
18160;DHT22;9205;52.032;4.314;2022-12-07T08:18:23;5.80;99.90
18160;DHT22;9205;52.032;4.314;2022-12-07T08:20:51;6.00;99.90
18160;DHT22;9205;52.032;4.314;2022-12-07T08:23:19;5.90;99.90
18160;DHT22;9205;52.032;4.314;2022-12-07T08:25:47;5.90;99.90
18160;DHT22;9205;52.032;4.314;2022-12-07T08:28:15;5.90;99.90
18160;DHT22;9205;52.032;4.314;2022-12-07T08:30:49;6.00;99.90
18160;DHT22;9205;52.032;4.314;2022-12-07T08:33:32;6.10;99.90
18160;DHT22;9205;52.032;4.314;2022-12-07T08:36:01;6.00;99.90
18160;DHT22;9205;52.032;4.314;2022-12-07T08:38:29;6.10;99.90
18160;DHT22;9205;52.032;4.314;2022-12-07T08:40:58;6.20;99.90
18160;DHT22;9205;52.032;4.314;2022-12-07T08:43:26;6.20;99.90
18160;DHT22;9205;52.032;4.314;2022-12-07T08:48:51;6.10;99.90
18160;DHT22;9205;52.032;4.314;2022-12-07T08:51:22;6.20;99.90
18160;DHT22;9205;52.032;4.314;2022-12-07T08:53:51;6.20;99.90
18160;DHT22;9205;52.032;4.314;2022-12-07T08:56:19;6.00;99.90
18160;DHT22;9205;52.032;4.314;2022-12-07T08:58:48;6.10;99.90
18160;DHT22;9205;52.032;4.314;2022-12-07T09:01:16;6.20;99.90
18160;DHT22;9205;52.032;4.314;2022-12-07T09:03:43;6.20;99.90
18160;DHT22;9205;52.032;4.314;2022-12-07T09:06:12;6.20;99.90
18160;DHT22;9205;52.032;4.314;2022-12-07T09:08:44;6.30;99.90
18160;DHT22;9205;52.032;4.314;2022-12-07T09:11:16;6.40;99.90
18160;DHT22;9205;52.032;4.314;2022-12-07T09:13:44;6.40;99.90
18160;DHT22;9205;52.032;4.314;2022-12-07T09:16:12;6.40;99.90
18160;DHT22;9205;52.032;4.314;2022-12-07T09:18:43;6.50;99.90
18160;DHT22;9205;52.032;4.314;2022-12-07T09:21:14;6.40;99.90
18160;DHT22;9205;52.032;4.314;2022-12-07T09:23:42;6.50;99.90
18160;DHT22;9205;52.032;4.314;2022-12-07T09:26:09;6.40;99.90
18160;DHT22;9205;52.032;4.314;2022-12-07T09:28:37;6.20;99.90
18160;DHT22;9205;52.032;4.314;2022-12-07T09:31:05;6.40;99.90
18160;DHT22;9205;52.032;4.314;2022-12-07T09:33:33;6.30;99.90
18160;DHT22;9205;52.032;4.314;2022-12-07T09:36:00;6.30;99.90
18160;DHT22;9205;52.032;4.314;2022-12-07T09:38:29;6.50;99.90
18160;DHT22;9205;52.032;4.314;2022-12-07T09:40:57;6.50;99.90
18160;DHT22;9205;52.032;4.314;2022-12-07T09:43:25;6.40;99.90
18160;DHT22;9205;52.032;4.314;2022-12-07T09:45:54;6.50;99.90
18160;DHT22;9205;52.032;4.314;2022-12-07T09:48:27;6.50;99.90
18160;DHT22;9205;52.032;4.314;2022-12-07T09:50:59;6.60;99.90
18160;DHT22;9205;52.032;4.314;2022-12-07T09:53:30;6.60;99.90
18160;DHT22;9205;52.032;4.314;2022-12-07T09:56:03;6.70;99.90
18160;DHT22;9205;52.032;4.314;2022-12-07T09:58:33;6.70;99.90
18160;DHT22;9205;52.032;4.314;2022-12-07T10:01:09;6.80;99.90
18160;DHT22;9205;52.032;4.314;2022-12-07T10:03:40;6.80;99.90
18160;DHT22;9205;52.032;4.314;2022-12-07T10:06:12;6.90;99.90
18160;DHT22;9205;52.032;4.314;2022-12-07T10:08:41;7.00;99.90
18160;DHT22;9205;52.032;4.314;2022-12-07T10:11:09;7.00;99.90
18160;DHT22;9205;52.032;4.314;2022-12-07T10:13:41;7.10;99.90
18160;DHT22;9205;52.032;4.314;2022-12-07T10:16:37;7.10;99.90
18160;DHT22;9205;52.032;4.314;2022-12-07T10:19:25;7.10;99.90
18160;DHT22;9205;52.032;4.314;2022-12-07T10:22:14;7.00;99.90
18160;DHT22;9205;52.032;4.314;2022-12-07T10:24:46;7.00;99.90
18160;DHT22;9205;52.032;4.314;2022-12-07T10:27:19;7.10;99.90
18160;DHT22;9205;52.032;4.314;2022-12-07T10:29:49;7.20;99.90
18160;DHT22;9205;52.032;4.314;2022-12-07T10:32:32;7.40;99.90
18160;DHT22;9205;52.032;4.314;2022-12-07T10:35:26;7.40;99.90
18160;DHT22;9205;52.032;4.314;2022-12-07T10:37:59;7.40;99.90
18160;DHT22;9205;52.032;4.314;2022-12-07T10:40:32;7.50;99.90
18160;DHT22;9205;52.032;4.314;2022-12-07T10:43:02;7.50;99.90
18160;DHT22;9205;52.032;4.314;2022-12-07T10:45:32;7.50;99.90
18160;DHT22;9205;52.032;4.314;2022-12-07T10:48:06;7.50;99.90
18160;DHT22;9205;52.032;4.314;2022-12-07T10:51:03;7.60;99.90
18160;DHT22;9205;52.032;4.314;2022-12-07T10:53:49;7.50;99.90
18160;DHT22;9205;52.032;4.314;2022-12-07T10:56:58;7.60;99.90
18160;DHT22;9205;52.032;4.314;2022-12-07T10:59:53;7.60;99.90
18160;DHT22;9205;52.032;4.314;2022-12-07T11:02:59;7.50;99.90
18160;DHT22;9205;52.032;4.314;2022-12-07T11:05:45;7.60;99.90
18160;DHT22;9205;52.032;4.314;2022-12-07T11:08:25;7.60;99.90
18160;DHT22;9205;52.032;4.314;2022-12-07T11:11:11;7.70;99.90
18160;DHT22;9205;52.032;4.314;2022-12-07T11:13:48;7.70;99.90
18160;DHT22;9205;52.032;4.314;2022-12-07T11:16:40;7.80;99.90
18160;DHT22;9205;52.032;4.314;2022-12-07T11:19:34;7.80;99.90
18160;DHT22;9205;52.032;4.314;2022-12-07T11:22:39;7.80;99.90
18160;DHT22;9205;52.032;4.314;2022-12-07T11:25:37;7.70;99.90
18160;DHT22;9205;52.032;4.314;2022-12-07T11:28:41;7.40;99.90
18160;DHT22;9205;52.032;4.314;2022-12-07T11:31:36;6.90;99.90
18160;DHT22;9205;52.032;4.314;2022-12-07T11:34:33;6.80;99.90
18160;DHT22;9205;52.032;4.314;2022-12-07T11:37:36;6.90;99.90
18160;DHT22;9205;52.032;4.314;2022-12-07T11:40:16;6.90;99.90
18160;DHT22;9205;52.032;4.314;2022-12-07T11:42:52;6.90;99.90
18160;DHT22;9205;52.032;4.314;2022-12-07T11:45:30;6.80;99.90
18160;DHT22;9205;52.032;4.314;2022-12-07T11:48:01;6.80;99.90
18160;DHT22;9205;52.032;4.314;2022-12-07T11:50:47;6.90;99.90
18160;DHT22;9205;52.032;4.314;2022-12-07T11:53:37;7.10;99.90
18160;DHT22;9205;52.032;4.314;2022-12-07T11:56:38;7.60;99.90
18160;DHT22;9205;52.032;4.314;2022-12-07T11:59:13;7.70;99.90
18160;DHT22;9205;52.032;4.314;2022-12-07T12:01:53;7.60;99.90
18160;DHT22;9205;52.032;4.314;2022-12-07T12:04:30;7.70;99.90
18160;DHT22;9205;52.032;4.314;2022-12-07T12:07:07;7.60;99.90
18160;DHT22;9205;52.032;4.314;2022-12-07T12:09:45;7.70;99.90
18160;DHT22;9205;52.032;4.314;2022-12-07T12:12:36;7.90;99.90
18160;DHT22;9205;52.032;4.314;2022-12-07T12:15:51;7.70;99.90
18160;DHT22;9205;52.032;4.314;2022-12-07T12:32:15;7.80;99.90
18160;DHT22;9205;52.032;4.314;2022-12-07T12:38:30;7.80;99.90
18160;DHT22;9205;52.032;4.314;2022-12-07T12:41:03;7.70;99.90
18160;DHT22;9205;52.032;4.314;2022-12-07T12:43:55;7.60;99.90
18160;DHT22;9205;52.032;4.314;2022-12-07T12:46:52;7.70;99.90
18160;DHT22;9205;52.032;4.314;2022-12-07T12:49:41;7.70;99.90
18160;DHT22;9205;52.032;4.314;2022-12-07T12:52:51;7.50;99.90
18160;DHT22;9205;52.032;4.314;2022-12-07T13:09:44;7.20;99.90
18160;DHT22;9205;52.032;4.314;2022-12-07T13:12:56;7.00;99.90
18160;DHT22;9205;52.032;4.314;2022-12-07T13:32:34;7.10;99.90
18160;DHT22;9205;52.032;4.314;2022-12-07T13:35:32;7.00;99.90
18160;DHT22;9205;52.032;4.314;2022-12-07T13:38:28;7.10;99.90
18160;DHT22;9205;52.032;4.314;2022-12-07T13:41:35;7.10;99.90
18160;DHT22;9205;52.032;4.314;2022-12-07T13:56:33;7.40;99.90
18160;DHT22;9205;52.032;4.314;2022-12-07T13:59:30;7.20;99.90
18160;DHT22;9205;52.032;4.314;2022-12-07T14:02:02;7.10;99.90
18160;DHT22;9205;52.032;4.314;2022-12-07T14:05:13;7.10;99.90
18160;DHT22;9205;52.032;4.314;2022-12-07T14:07:55;7.10;99.90
18160;DHT22;9205;52.032;4.314;2022-12-07T14:11:09;7.10;99.90
18160;DHT22;9205;52.032;4.314;2022-12-07T14:14:22;7.00;99.90
18160;DHT22;9205;52.032;4.314;2022-12-07T14:21:14;7.20;99.90
18160;DHT22;9205;52.032;4.314;2022-12-07T14:24:26;7.00;99.90
18160;DHT22;9205;52.032;4.314;2022-12-07T14:26:59;7.20;99.90
18160;DHT22;9205;52.032;4.314;2022-12-07T14:29:45;7.20;99.90
18160;DHT22;9205;52.032;4.314;2022-12-07T14:32:23;7.20;99.90
18160;DHT22;9205;52.032;4.314;2022-12-07T14:35:17;7.10;99.90
18160;DHT22;9205;52.032;4.314;2022-12-07T14:37:47;7.00;99.90
18160;DHT22;9205;52.032;4.314;2022-12-07T14:40:17;6.70;99.90
18160;DHT22;9205;52.032;4.314;2022-12-07T14:42:50;6.70;99.90
18160;DHT22;9205;52.032;4.314;2022-12-07T14:45:23;6.80;99.90
18160;DHT22;9205;52.032;4.314;2022-12-07T14:47:50;6.80;99.90
18160;DHT22;9205;52.032;4.314;2022-12-07T14:50:21;6.80;99.90
18160;DHT22;9205;52.032;4.314;2022-12-07T14:52:51;6.70;99.90
18160;DHT22;9205;52.032;4.314;2022-12-07T14:55:25;6.80;99.90
18160;DHT22;9205;52.032;4.314;2022-12-07T14:57:54;6.80;99.90
18160;DHT22;9205;52.032;4.314;2022-12-07T15:00:30;6.80;99.90
18160;DHT22;9205;52.032;4.314;2022-12-07T15:03:03;6.80;99.90
18160;DHT22;9205;52.032;4.314;2022-12-07T15:05:39;6.70;99.90
18160;DHT22;9205;52.032;4.314;2022-12-07T15:08:17;6.70;99.90
18160;DHT22;9205;52.032;4.314;2022-12-07T15:11:04;6.80;99.90
18160;DHT22;9205;52.032;4.314;2022-12-07T15:13:32;6.60;99.90
18160;DHT22;9205;52.032;4.314;2022-12-07T15:16:21;6.70;99.90
18160;DHT22;9205;52.032;4.314;2022-12-07T15:18:52;6.70;99.90
18160;DHT22;9205;52.032;4.314;2022-12-07T15:21:27;6.70;99.90
18160;DHT22;9205;52.032;4.314;2022-12-07T15:23:55;6.70;99.90
18160;DHT22;9205;52.032;4.314;2022-12-07T15:26:30;6.70;99.90
18160;DHT22;9205;52.032;4.314;2022-12-07T15:29:11;6.70;99.90
18160;DHT22;9205;52.032;4.314;2022-12-07T15:31:49;6.50;99.90
18160;DHT22;9205;52.032;4.314;2022-12-07T15:34:17;6.60;99.90
18160;DHT22;9205;52.032;4.314;2022-12-07T15:36:45;6.60;99.90
18160;DHT22;9205;52.032;4.314;2022-12-07T15:39:30;6.50;99.90
18160;DHT22;9205;52.032;4.314;2022-12-07T15:49:12;6.60;99.90
18160;DHT22;9205;52.032;4.314;2022-12-07T15:51:43;6.40;99.90
18160;DHT22;9205;52.032;4.314;2022-12-07T15:54:16;6.40;99.90
18160;DHT22;9205;52.032;4.314;2022-12-07T15:56:49;6.40;99.90
18160;DHT22;9205;52.032;4.314;2022-12-07T15:59:17;6.50;99.90
18160;DHT22;9205;52.032;4.314;2022-12-07T16:01:53;6.40;99.90
18160;DHT22;9205;52.032;4.314;2022-12-07T16:04:43;6.50;99.90
18160;DHT22;9205;52.032;4.314;2022-12-07T16:07:18;6.50;99.90
18160;DHT22;9205;52.032;4.314;2022-12-07T16:09:53;6.40;99.90
18160;DHT22;9205;52.032;4.314;2022-12-07T16:12:25;6.40;99.90
18160;DHT22;9205;52.032;4.314;2022-12-07T16:15:09;6.50;99.90
18160;DHT22;9205;52.032;4.314;2022-12-07T16:17:43;6.30;99.90
18160;DHT22;9205;52.032;4.314;2022-12-07T16:20:22;6.40;99.90
18160;DHT22;9205;52.032;4.314;2022-12-07T16:23:19;6.40;99.90
18160;DHT22;9205;52.032;4.314;2022-12-07T16:26:26;6.40;99.90
18160;DHT22;9205;52.032;4.314;2022-12-07T16:31:27;6.30;99.90
18160;DHT22;9205;52.032;4.314;2022-12-07T16:33:14;6.40;99.90
18160;DHT22;9205;52.032;4.314;2022-12-07T16:36:40;6.50;99.90
18160;DHT22;9205;52.032;4.314;2022-12-07T16:39:19;6.30;99.90
18160;DHT22;9205;52.032;4.314;2022-12-07T16:42:00;6.30;99.90
18160;DHT22;9205;52.032;4.314;2022-12-07T16:44:34;6.40;99.90
18160;DHT22;9205;52.032;4.314;2022-12-07T16:51:23;6.40;99.90
18160;DHT22;9205;52.032;4.314;2022-12-07T16:54:18;6.30;99.90
18160;DHT22;9205;52.032;4.314;2022-12-07T16:56:56;6.40;99.90
18160;DHT22;9205;52.032;4.314;2022-12-07T16:59:50;6.40;99.90
18160;DHT22;9205;52.032;4.314;2022-12-07T17:02:20;6.30;99.90
18160;DHT22;9205;52.032;4.314;2022-12-07T17:04:50;6.30;99.90
18160;DHT22;9205;52.032;4.314;2022-12-07T17:07:24;6.40;99.90
18160;DHT22;9205;52.032;4.314;2022-12-07T17:09:56;6.40;99.90
18160;DHT22;9205;52.032;4.314;2022-12-07T17:12:27;6.30;99.90
18160;DHT22;9205;52.032;4.314;2022-12-07T17:14:56;6.40;99.90
18160;DHT22;9205;52.032;4.314;2022-12-07T17:17:41;6.40;99.90
18160;DHT22;9205;52.032;4.314;2022-12-07T17:20:09;6.40;99.90
18160;DHT22;9205;52.032;4.314;2022-12-07T17:22:38;6.40;99.90
18160;DHT22;9205;52.032;4.314;2022-12-07T17:25:11;6.40;99.90
18160;DHT22;9205;52.032;4.314;2022-12-07T17:27:41;6.40;99.90
18160;DHT22;9205;52.032;4.314;2022-12-07T17:30:30;6.40;99.90
18160;DHT22;9205;52.032;4.314;2022-12-07T17:33:11;6.50;99.90
18160;DHT22;9205;52.032;4.314;2022-12-07T17:35:56;6.40;99.90
18160;DHT22;9205;52.032;4.314;2022-12-07T17:38:28;6.40;99.90
18160;DHT22;9205;52.032;4.314;2022-12-07T17:41:12;6.40;99.90
18160;DHT22;9205;52.032;4.314;2022-12-07T17:44:16;6.40;99.90
18160;DHT22;9205;52.032;4.314;2022-12-07T17:46:47;6.40;99.90
18160;DHT22;9205;52.032;4.314;2022-12-07T17:49:24;6.30;99.90
18160;DHT22;9205;52.032;4.314;2022-12-07T17:51:52;6.40;99.90
18160;DHT22;9205;52.032;4.314;2022-12-07T17:54:40;6.50;99.90
18160;DHT22;9205;52.032;4.314;2022-12-07T17:57:12;6.40;99.90
18160;DHT22;9205;52.032;4.314;2022-12-07T17:59:40;6.30;99.90
18160;DHT22;9205;52.032;4.314;2022-12-07T18:02:37;6.30;99.90
18160;DHT22;9205;52.032;4.314;2022-12-07T18:05:08;6.30;99.90
18160;DHT22;9205;52.032;4.314;2022-12-07T18:07:44;6.20;99.90
18160;DHT22;9205;52.032;4.314;2022-12-07T18:10:40;6.20;99.90
18160;DHT22;9205;52.032;4.314;2022-12-07T18:13:10;6.30;99.90
18160;DHT22;9205;52.032;4.314;2022-12-07T18:15:57;6.30;99.90
18160;DHT22;9205;52.032;4.314;2022-12-07T18:18:40;6.20;99.90
18160;DHT22;9205;52.032;4.314;2022-12-07T18:21:13;6.20;99.90